Time;durP1;ratioP1;P1;durP2;ratioP2;P2;SDS_P1;SDS_P2;PMS_P1;PMS_P2;Temp;Humidity;BMP_temperature;BMP_pressure;BME280_temperature;BME280_humidity;BME280_pressure;Samples;Min_cycle;Max_cycle;Signal;HPM_P1;HPM_P2
2023/11/02 00:01:09;;;;;;;0.00;0.00;;;;;;;9.36;100.00;98830.22;5100154;28;20043;-41
2023/11/02 00:03:36;;;;;;;0.00;0.00;;;;;;;9.38;100.00;98809.34;5120034;28;20051;-40
2023/11/02 00:06:34;;;;;;;0.00;0.00;;;;;;;9.41;100.00;98803.53;5101078;28;20034;-41
2023/11/02 00:09:10;;;;;;;0.00;0.00;;;;;;;9.49;100.00;98793.53;5119275;28;20047;-40
2023/11/02 00:11:57;;;;;;;0.00;0.00;;;;;;;9.47;100.00;98782.19;5117573;28;20126;-40
2023/11/02 00:14:23;;;;;;;0.00;0.00;;;;;;;9.51;100.00;98778.84;5117826;28;20024;-39
2023/11/02 00:16:49;;;;;;;0.00;0.00;;;;;;;9.56;100.00;98775.50;5117592;28;20035;-41
2023/11/02 00:19:30;;;;;;;0.00;0.00;;;;;;;9.57;100.00;98769.06;5099088;28;20030;-42
2023/11/02 00:22:07;;;;;;;0.00;0.00;;;;;;;9.59;100.00;98757.06;5115893;28;20260;-42
2023/11/02 00:24:35;;;;;;;0.00;0.00;;;;;;;9.61;100.00;98746.06;5115749;28;20106;-39
2023/11/02 00:27:01;;;;;;;0.00;0.00;;;;;;;9.61;100.00;98728.09;5117360;28;20027;-38
2023/11/02 00:29:26;;;;;;;0.00;0.00;;;;;;;9.65;100.00;98723.09;5116999;28;20020;-41
2023/11/02 00:31:52;;;;;;;0.00;0.00;;;;;;;9.69;100.00;98692.06;5117452;28;20092;-41
2023/11/02 00:34:17;;;;;;;0.00;0.00;;;;;;;9.70;100.00;98682.94;5112704;28;20058;-41
2023/11/02 00:36:43;;;;;;;0.00;0.00;;;;;;;9.72;100.00;98678.16;5112471;28;20243;-41
2023/11/02 00:39:08;;;;;;;0.00;0.00;;;;;;;9.76;100.00;98665.91;5113296;28;20412;-41
2023/11/02 00:41:33;;;;;;;0.00;0.00;;;;;;;9.73;100.00;98666.34;5113329;28;20458;-41
2023/11/02 00:43:59;;;;;;;0.00;0.00;;;;;;;9.81;100.00;98655.28;5112598;28;20064;-41
2023/11/02 00:46:25;;;;;;;0.00;0.00;;;;;;;9.83;100.00;98663.94;5094149;28;20028;-42
2023/11/02 00:48:51;;;;;;;0.00;0.00;;;;;;;9.84;100.00;98652.13;5095407;28;20019;-41
2023/11/02 00:51:20;;;;;;;0.00;0.00;;;;;;;9.84;100.00;98657.50;5095058;28;20028;-42
2023/11/02 00:53:48;;;;;;;0.00;0.00;;;;;;;9.91;100.00;98641.28;5116144;28;20024;-42
2023/11/02 00:56:16;;;;;;;0.00;0.00;;;;;;;9.95;100.00;98622.81;5100743;28;20080;-41
2023/11/02 00:58:46;;;;;;;0.00;0.00;;;;;;;9.97;100.00;98626.09;5102470;28;20421;-41
2023/11/02 01:01:13;;;;;;;0.00;0.00;;;;;;;9.98;100.00;98606.22;5118264;28;20457;-41
2023/11/02 01:03:38;;;;;;;0.00;0.00;;;;;;;9.98;100.00;98587.41;5097614;28;20185;-41
2023/11/02 01:06:12;;;;;;;0.00;0.00;;;;;;;9.98;100.00;98603.53;5098999;28;20078;-41
2023/11/02 01:08:37;;;;;;;0.00;0.00;;;;;;;10.05;100.00;98570.13;5097468;28;20038;-41
2023/11/02 01:11:03;;;;;;;0.00;0.00;;;;;;;10.08;100.00;98560.78;5098838;28;20470;-40
2023/11/02 01:13:28;;;;;;;0.00;0.00;;;;;;;10.11;100.00;98554.97;5099398;28;20066;-40
2023/11/02 01:16:08;;;;;;;0.00;0.00;;;;;;;10.15;100.00;98544.56;5094801;28;20020;-40
2023/11/02 01:18:34;;;;;;;0.00;0.00;;;;;;;10.11;100.00;98528.09;5093811;28;20043;-40
2023/11/02 01:21:04;;;;;;;0.00;0.00;;;;;;;10.15;100.00;98517.66;5094039;28;20394;-41
2023/11/02 01:23:30;;;;;;;0.00;0.00;;;;;;;10.16;100.00;98506.66;5093504;28;20028;-39
2023/11/02 01:25:56;;;;;;;0.00;0.00;;;;;;;10.18;100.00;98493.00;5095569;28;20241;-40
2023/11/02 01:28:23;;;;;;;0.00;0.00;;;;;;;10.21;100.00;98493.34;5093966;28;20494;-41
2023/11/02 01:31:00;;;;;;;0.00;0.00;;;;;;;10.18;100.00;98469.63;5093648;28;20024;-41
2023/11/02 01:33:50;;;;;;;0.00;0.00;;;;;;;10.19;100.00;98457.00;5091975;28;20398;-41
2023/11/02 01:36:35;;;;;;;0.00;0.00;;;;;;;10.18;100.00;98445.44;5088109;28;20519;-40
2023/11/02 01:39:13;;;;;;;0.00;0.00;;;;;;;10.16;100.00;98438.66;5092191;28;20056;-40
2023/11/02 01:42:03;;;;;;;0.00;0.00;;;;;;;10.11;100.00;98412.53;5091277;28;20116;-40
2023/11/02 01:44:40;;;;;;;0.00;0.00;;;;;;;10.10;100.00;98370.56;5091128;28;20035;-39
2023/11/02 01:47:11;;;;;;;0.00;0.00;;;;;;;10.07;100.00;98354.91;5091065;28;20024;-41
2023/11/02 01:49:48;;;;;;;0.00;0.00;;;;;;;10.11;100.00;98339.97;5089878;28;20020;-40
2023/11/02 01:52:48;;;;;;;0.00;0.00;;;;;;;10.11;100.00;98334.59;5091421;28;20095;-41
2023/11/02 01:55:22;;;;;;;0.00;0.00;;;;;;;10.10;100.00;98306.88;5074634;28;20592;-41
2023/11/02 01:58:13;;;;;;;0.00;0.00;;;;;;;10.14;100.00;98301.84;5091073;28;20024;-40
2023/11/02 02:00:54;;;;;;;0.00;0.00;;;;;;;10.18;100.00;98292.22;5092300;28;20038;-40
2023/11/02 02:03:28;;;;;;;0.00;0.00;;;;;;;10.19;100.00;98277.75;5103212;28;20039;-39
2023/11/02 02:06:01;;;;;;;0.00;0.00;;;;;;;10.22;100.00;98266.50;5106844;28;20051;-41
2023/11/02 02:08:36;;;;;;;0.00;0.00;;;;;;;10.18;100.00;98264.53;5116651;28;20137;-40
2023/11/02 02:11:20;;;;;;;0.00;0.00;;;;;;;10.15;100.00;98270.41;5118513;28;20135;-40
2023/11/02 02:13:45;;;;;;;0.00;0.00;;;;;;;10.09;100.00;98259.56;5116749;28;20442;-40
2023/11/02 02:16:31;;;;;;;0.00;0.00;;;;;;;10.09;100.00;98256.06;5114468;28;20030;-42
2023/11/02 02:19:16;;;;;;;0.00;0.00;;;;;;;10.08;100.00;98251.72;5092683;28;20494;-39
2023/11/02 02:21:53;;;;;;;0.00;0.00;;;;;;;10.06;100.00;98243.94;5097945;28;20030;-40
2023/11/02 02:24:43;;;;;;;0.00;0.00;;;;;;;10.04;100.00;98216.47;5111015;28;20039;-41
2023/11/02 02:27:42;;;;;;;0.00;0.00;;;;;;;10.07;100.00;98199.06;5127454;28;20096;-39
2023/11/02 02:30:41;;;;;;;0.00;0.00;;;;;;;10.14;100.00;98169.31;5095393;28;20040;-40
2023/11/02 02:33:13;;;;;;;0.00;0.00;;;;;;;10.14;100.00;98167.47;5111337;28;20035;-40
2023/11/02 02:36:08;;;;;;;0.00;0.00;;;;;;;10.13;100.00;98146.19;5111975;28;20405;-40
2023/11/02 02:38:46;;;;;;;0.00;0.00;;;;;;;10.16;100.00;98149.19;5090004;28;20135;-40
2023/11/02 02:41:12;;;;;;;;;;;;;;;10.17;100.00;98137.41;5096265;28;20034;-38
2023/11/02 02:43:38;;;;;;;0.00;0.00;;;;;;;10.13;100.00;98133.56;5092742;28;19915;-42
2023/11/02 02:46:04;;;;;;;0.00;0.00;;;;;;;10.13;100.00;98128.19;5095914;28;20431;-40
2023/11/02 02:48:30;;;;;;;0.00;0.00;;;;;;;10.13;100.00;98124.69;5096800;28;20057;-40
2023/11/02 02:51:02;;;;;;;0.00;0.00;;;;;;;10.18;100.00;98108.66;5096656;28;20478;-40
2023/11/02 02:53:30;;;;;;;0.00;0.00;;;;;;;10.19;100.00;98103.03;5114606;28;20035;-41
2023/11/02 02:55:56;;;;;;;;;;;;;;;10.23;100.00;98079.97;5114909;28;20028;-41
2023/11/02 02:58:22;;;;;;;0.00;0.00;;;;;;;10.24;100.00;98070.88;5114704;28;19910;-39
2023/11/02 03:00:48;;;;;;;0.00;0.00;;;;;;;10.24;100.00;98073.56;5114335;28;20061;-41
2023/11/02 03:03:15;;;;;;;0.00;0.00;;;;;;;10.24;100.00;98043.16;5096168;28;20039;-40
2023/11/02 03:05:42;;;;;;;0.00;0.00;;;;;;;10.26;100.00;98032.97;5096413;28;20041;-40
2023/11/02 03:08:09;;;;;;;0.00;0.00;;;;;;;10.27;100.00;98002.34;5114983;28;20027;-41
2023/11/02 03:10:36;;;;;;;0.00;0.00;;;;;;;10.26;100.00;97987.28;5098648;28;20024;-40
2023/11/02 03:13:03;;;;;;;0.00;0.00;;;;;;;10.24;100.00;97979.47;5098018;28;20049;-41
2023/11/02 03:15:33;;;;;;;0.00;0.00;;;;;;;10.25;100.00;97978.41;5097786;28;20523;-38
2023/11/02 03:18:09;;;;;;;0.00;0.00;;;;;;;10.33;100.00;97929.59;5119357;28;20050;-41
2023/11/02 03:20:35;;;;;;;0.00;0.00;;;;;;;10.38;100.00;97915.41;5121652;28;20033;-40
2023/11/02 03:23:15;;;;;;;0.00;0.00;;;;;;;10.40;100.00;97944.72;5115611;28;20525;-39
2023/11/02 03:25:55;;;;;;;0.00;0.00;;;;;;;10.44;100.00;97948.53;5114546;28;20385;-41
2023/11/02 03:28:34;;;;;;;0.00;0.00;;;;;;;10.47;100.00;97956.91;5114472;28;20035;-39
2023/11/02 03:31:17;;;;;;;0.00;0.00;;;;;;;10.42;100.00;97927.28;5114770;28;20484;-38
2023/11/02 03:33:49;;;;;;;0.00;0.00;;;;;;;10.46;100.00;97895.31;5105970;28;20039;-40
2023/11/02 03:36:23;;;;;;;0.00;0.00;;;;;;;10.45;100.00;97872.19;5114101;28;20028;-39
2023/11/02 03:39:16;;;;;;;0.00;0.00;;;;;;;10.48;100.00;97855.56;5113602;28;20075;-39
2023/11/02 03:41:59;;;;;;;0.00;0.00;;;;;;;10.52;100.00;97845.91;5095295;28;20035;-41
2023/11/02 03:44:28;;;;;;;0.00;0.00;;;;;;;10.54;100.00;97825.75;5113297;28;20042;-41
2023/11/02 03:47:05;;;;;;;0.00;0.00;;;;;;;10.58;100.00;97815.28;5095666;28;20085;-42
2023/11/02 03:49:41;;;;;;;0.00;0.00;;;;;;;10.54;100.00;97815.00;5112777;28;20031;-41
2023/11/02 03:52:36;;;;;;;0.00;0.00;;;;;;;10.53;100.00;97815.25;5113661;28;20453;-39
2023/11/02 03:55:01;;;;;;;0.00;0.00;;;;;;;10.54;100.00;97776.56;5050221;28;20040;-41
2023/11/02 03:57:26;;;;;;;0.00;0.00;;;;;;;10.60;100.00;97777.41;5092890;28;20057;-40
2023/11/02 03:59:55;;;;;;;0.00;0.00;;;;;;;10.65;100.00;97756.72;5092960;28;20086;-40
2023/11/02 04:02:28;;;;;;;0.00;0.00;;;;;;;10.64;100.00;97720.16;5093591;28;20027;-41
2023/11/02 04:05:15;;;;;;;0.00;0.00;;;;;;;10.67;100.00;97710.75;5093500;28;20031;-41
2023/11/02 04:08:02;;;;;;;0.00;0.00;;;;;;;10.65;100.00;97684.13;5092882;28;20028;-40
2023/11/02 04:10:29;;;;;;;0.00;0.00;;;;;;;10.65;100.00;97670.66;5093452;28;20364;-41
2023/11/02 04:13:04;;;;;;;0.00;0.00;;;;;;;10.68;100.00;97663.97;5103887;28;20023;-40
2023/11/02 04:15:30;;;;;;;0.00;0.00;;;;;;;10.73;100.00;97664.78;5100496;28;20027;-41
2023/11/02 04:17:57;;;;;;;0.00;0.00;;;;;;;10.72;100.00;97644.34;5116683;28;20294;-41
2023/11/02 04:20:23;;;;;;;0.00;0.00;;;;;;;10.73;100.00;97647.84;5094688;28;20019;-40
2023/11/02 04:22:48;;;;;;;0.00;0.00;;;;;;;10.75;100.00;97641.13;5077421;28;20020;-42
2023/11/02 04:25:16;;;;;;;0.00;0.00;;;;;;;10.77;100.00;97636.31;5112711;28;20047;-41
2023/11/02 04:27:42;;;;;;;0.00;0.00;;;;;;;10.83;100.00;97625.59;5094604;28;20027;-38
2023/11/02 04:30:08;;;;;;;0.00;0.00;;;;;;;10.81;100.00;97609.69;5112551;28;20466;-39
2023/11/02 04:32:33;;;;;;;0.00;0.00;;;;;;;10.86;100.00;97611.59;5094384;28;20194;-39
2023/11/02 04:34:58;;;;;;;0.00;0.00;;;;;;;10.86;100.00;97641.19;5112100;28;20079;-41
2023/11/02 04:37:24;;;;;;;0.00;0.00;;;;;;;10.93;100.00;97621.06;5094027;28;20390;-40
2023/11/02 04:39:49;;;;;;;0.00;0.00;;;;;;;10.93;100.00;97596.03;5112633;28;20035;-39
2023/11/02 04:42:18;;;;;;;0.00;0.00;;;;;;;10.95;100.00;97586.63;5112297;28;20425;-39
2023/11/02 04:44:43;;;;;;;0.00;0.00;;;;;;;10.96;100.00;97576.66;5112412;28;20042;-41
2023/11/02 04:47:09;;;;;;;0.00;0.00;;;;;;;10.98;100.00;97587.97;5101947;28;20051;-40
2023/11/02 04:49:34;;;;;;;0.00;0.00;;;;;;;10.98;100.00;97571.84;5119005;28;20039;-39
2023/11/02 04:52:02;;;;;;;0.00;0.00;;;;;;;10.85;100.00;97580.38;5118304;28;20425;-39
2023/11/02 04:54:28;;;;;;;0.00;0.00;;;;;;;10.60;100.00;97554.19;5112776;28;20107;-40
2023/11/02 04:56:54;;;;;;;0.00;0.00;;;;;;;10.36;100.00;97556.50;5112465;28;20076;-40
2023/11/02 04:59:19;;;;;;;0.00;0.00;;;;;;;10.22;100.00;97532.75;5112559;28;20035;-40
2023/11/02 05:01:45;;;;;;;0.00;0.00;;;;;;;10.28;100.00;97545.19;5112343;28;20393;-40
2023/11/02 05:04:10;;;;;;;0.00;0.00;;;;;;;10.26;100.00;97531.16;5111923;28;20048;-42
2023/11/02 05:06:38;;;;;;;0.00;0.00;;;;;;;10.31;100.00;97516.97;5112320;28;20516;-42
2023/11/02 05:09:04;;;;;;;0.00;0.00;;;;;;;10.43;100.00;97495.25;5111416;28;20105;-41
2023/11/02 05:11:29;;;;;;;0.00;0.00;;;;;;;10.49;100.00;97486.13;5111760;28;20481;-41
2023/11/02 05:13:54;;;;;;;0.00;0.00;;;;;;;10.63;100.00;97471.09;5111635;28;20027;-41
2023/11/02 05:16:20;;;;;;;0.00;0.00;;;;;;;10.71;100.00;97459.03;5112018;28;20268;-39
2023/11/02 05:18:45;;;;;;;0.00;0.00;;;;;;;10.73;100.00;97462.25;5111756;28;20058;-41
2023/11/02 05:21:10;;;;;;;0.00;0.00;;;;;;;10.72;100.00;97461.47;5103224;28;20115;-40
2023/11/02 05:23:36;;;;;;;0.00;0.00;;;;;;;10.69;100.00;97442.34;5111320;28;20055;-40
2023/11/02 05:26:02;;;;;;;0.00;0.00;;;;;;;10.54;100.00;97443.94;5111617;28;20024;-40
2023/11/02 05:28:27;;;;;;;0.00;0.00;;;;;;;10.47;100.00;97429.13;5093237;28;20034;-43
2023/11/02 05:30:53;;;;;;;0.00;0.00;;;;;;;10.40;100.00;97420.50;5111674;28;20024;-41
2023/11/02 05:33:18;;;;;;;0.00;0.00;;;;;;;10.42;100.00;97405.72;5110937;28;20032;-40
2023/11/02 05:35:43;;;;;;;0.00;0.00;;;;;;;10.44;100.00;97397.41;5110468;28;20027;-42
2023/11/02 05:38:09;;;;;;;0.00;0.00;;;;;;;10.45;100.00;97407.91;5110520;28;20072;-40
2023/11/02 05:40:34;;;;;;;0.00;0.00;;;;;;;10.49;100.00;97394.72;5102757;28;20378;-39
2023/11/02 05:42:59;;;;;;;0.00;0.00;;;;;;;10.48;100.00;97393.13;5111704;27;20053;-40
2023/11/02 05:45:25;;;;;;;0.00;0.00;;;;;;;10.37;100.00;97391.47;5127353;27;20019;-41
2023/11/02 05:47:50;;;;;;;0.00;0.00;;;;;;;10.28;100.00;97383.13;5132032;27;20030;-40
2023/11/02 05:50:17;;;;;;;0.00;0.00;;;;;;;10.17;100.00;97370.69;5125237;27;20023;-41
2023/11/02 05:52:42;;;;;;;0.00;0.00;;;;;;;10.06;100.00;97380.59;5101324;28;20027;-41
2023/11/02 05:55:08;;;;;;;0.00;0.00;;;;;;;9.92;100.00;97374.88;5115346;28;20043;-42
2023/11/02 05:57:34;;;;;;;0.00;0.00;;;;;;;9.80;100.00;97377.00;5114200;28;20492;-42
2023/11/02 05:59:59;;;;;;;0.00;0.00;;;;;;;9.73;100.00;97371.84;5114077;28;20023;-41
2023/11/02 06:02:25;;;;;;;0.00;0.00;;;;;;;9.65;100.00;97369.69;5104659;28;20555;-41
2023/11/02 06:04:51;;;;;;;0.00;0.00;;;;;;;9.62;100.00;97357.56;5104135;28;20019;-41
2023/11/02 06:07:16;;;;;;;0.00;0.00;;;;;;;9.55;100.00;97346.25;5114910;28;20035;-41
2023/11/02 06:09:44;;;;;;;0.00;0.00;;;;;;;9.54;100.00;97343.84;5114207;28;20118;-42
2023/11/02 06:12:10;;;;;;;0.00;0.00;;;;;;;9.57;100.00;97319.16;5113661;28;20473;-41
2023/11/02 06:14:36;;;;;;;0.00;0.00;;;;;;;9.60;100.00;97315.94;5115466;28;20091;-41
2023/11/02 06:17:02;;;;;;;0.00;0.00;;;;;;;9.63;100.00;97323.47;5116681;28;20031;-41
2023/11/02 06:19:27;;;;;;;0.00;0.00;;;;;;;9.69;100.00;97295.59;5117995;28;20023;-41
2023/11/02 06:21:53;;;;;;;0.00;0.00;;;;;;;9.76;100.00;97306.06;5121536;28;20158;-41
2023/11/02 06:24:18;;;;;;;0.00;0.00;;;;;;;9.80;100.00;97307.97;5122739;28;20051;-41
2023/11/02 06:26:43;;;;;;;0.00;0.00;;;;;;;9.86;100.00;97287.31;5122006;28;20067;-40
2023/11/02 06:29:11;;;;;;;0.00;0.00;;;;;;;9.93;100.00;97274.44;5101163;28;20055;-39
2023/11/02 06:31:36;;;;;;;0.00;0.00;;;;;;;9.93;100.00;97262.91;5120139;28;20051;-39
2023/11/02 06:34:02;;;;;;;0.00;0.00;;;;;;;9.94;100.00;97259.13;5120032;28;20028;-40
2023/11/02 06:36:27;;;;;;;0.00;0.00;;;;;;;9.91;100.00;97243.56;5117224;28;20466;-40
2023/11/02 06:38:53;;;;;;;0.00;0.00;;;;;;;9.89;100.00;97241.13;5115320;28;20030;-44
2023/11/02 06:41:18;;;;;;;0.00;0.00;;;;;;;9.84;100.00;97238.44;5111021;28;20035;-43
2023/11/02 06:43:44;;;;;;;0.00;0.00;;;;;;;9.81;100.00;97238.97;5096365;28;20436;-42
2023/11/02 06:46:09;;;;;;;0.00;0.00;;;;;;;9.82;100.00;97227.13;5115473;28;20031;-43
2023/11/02 06:48:35;;;;;;;0.00;0.00;;;;;;;9.86;100.00;97236.28;5116416;28;20019;-42
2023/11/02 06:51:00;;;;;;;0.00;0.00;;;;;;;9.94;100.00;97237.66;5115115;28;20068;-43
2023/11/02 06:53:26;;;;;;;0.00;0.00;;;;;;;9.95;100.00;97215.06;5115316;28;20092;-41
2023/11/02 06:55:51;;;;;;;0.00;0.00;;;;;;;9.95;100.00;97190.91;5115628;28;20028;-41
2023/11/02 06:58:17;;;;;;;0.00;0.00;;;;;;;9.95;100.00;97213.19;5115716;28;20103;-39
2023/11/02 07:00:43;;;;;;;0.00;0.00;;;;;;;10.03;100.00;97201.09;5116733;28;20031;-39
2023/11/02 07:03:09;;;;;;;0.00;0.00;;;;;;;10.08;100.00;97196.56;5120600;28;20040;-40
2023/11/02 07:05:34;;;;;;;0.00;0.00;;;;;;;10.14;100.00;97183.94;5119464;28;20028;-38
2023/11/02 07:07:59;;;;;;;0.00;0.00;;;;;;;10.16;100.00;97192.53;5097396;28;20059;-39
2023/11/02 07:10:26;;;;;;;0.00;0.00;;;;;;;10.23;100.00;97181.50;5115595;28;20110;-39
2023/11/02 07:12:52;;;;;;;0.00;0.00;;;;;;;10.35;100.00;97159.75;5111814;28;20473;-40
2023/11/02 07:15:18;;;;;;;0.00;0.00;;;;;;;10.37;100.00;97165.66;5096962;28;20465;-39
2023/11/02 07:17:43;;;;;;;0.00;0.00;;;;;;;10.38;100.00;97157.34;5117779;28;20044;-40
2023/11/02 07:20:09;;;;;;;0.00;0.00;;;;;;;10.42;100.00;97152.22;5118829;28;20062;-40
2023/11/02 07:22:35;;;;;;;0.00;0.00;;;;;;;10.44;100.00;97139.31;5119605;28;20381;-40
2023/11/02 07:25:03;;;;;;;0.00;0.00;;;;;;;10.45;100.00;97146.31;5119745;28;20035;-40
2023/11/02 07:27:30;;;;;;;0.00;0.00;;;;;;;10.49;100.00;97126.69;5118263;28;20043;-41
2023/11/02 07:29:55;;;;;;;0.00;0.00;;;;;;;10.55;100.00;97106.75;5116237;28;20019;-40
2023/11/02 07:32:21;;;;;;;0.00;0.00;;;;;;;10.50;100.00;97119.41;5117682;28;20027;-40
2023/11/02 07:34:46;;;;;;;0.00;0.00;;;;;;;10.49;100.00;97107.06;5117522;28;20495;-39
2023/11/02 07:37:12;;;;;;;0.00;0.00;;;;;;;10.44;100.00;97113.25;5096628;28;20489;-40
2023/11/02 07:39:37;;;;;;;0.00;0.00;;;;;;;10.45;100.00;97114.03;5117681;28;20088;-40
2023/11/02 07:42:03;;;;;;;0.00;0.00;;;;;;;10.41;100.00;97097.66;5118637;28;20038;-40
2023/11/02 07:44:28;;;;;;;0.00;0.00;;;;;;;10.31;100.00;97120.00;5118008;28;20020;-39
2023/11/02 07:46:54;;;;;;;0.00;0.00;;;;;;;10.20;100.00;97112.19;5116830;28;20051;-42
2023/11/02 07:49:19;;;;;;;0.00;0.00;;;;;;;10.12;100.00;97126.97;5114706;28;20039;-46
2023/11/02 07:51:45;;;;;;;0.00;0.00;;;;;;;10.07;100.00;97113.53;5113607;28;20046;-44
2023/11/02 07:54:10;;;;;;;0.00;0.00;;;;;;;10.03;100.00;97113.28;5113907;28;20028;-43
2023/11/02 07:56:36;;;;;;;0.00;0.00;;;;;;;10.11;100.00;97102.00;5115031;28;20060;-44
2023/11/02 07:59:02;;;;;;;0.00;0.00;;;;;;;10.11;100.00;97114.63;5114592;28;20032;-45
2023/11/02 08:01:28;;;;;;;0.00;0.00;;;;;;;10.11;100.00;97103.88;5110088;28;20054;-45
2023/11/02 08:03:53;;;;;;;0.00;0.00;;;;;;;10.10;100.00;97108.44;5114663;28;20412;-42
2023/11/02 08:06:19;;;;;;;0.00;0.00;;;;;;;10.11;100.00;97115.44;5113565;28;20038;-45
2023/11/02 08:08:44;;;;;;;0.00;0.00;;;;;;;10.16;100.00;97090.41;5114127;28;20024;-45
2023/11/02 08:11:10;;;;;;;0.00;0.00;;;;;;;10.15;100.00;97096.88;5116384;27;20015;-46
2023/11/02 08:13:35;;;;;;;0.00;0.00;;;;;;;10.18;100.00;97074.03;5118003;27;20028;-44
2023/11/02 08:16:01;;;;;;;0.00;0.00;;;;;;;10.21;100.00;97066.22;5113095;28;20381;-45
2023/11/02 08:18:26;;;;;;;0.00;0.00;;;;;;;10.23;100.00;97069.44;5078153;28;20453;-44
2023/11/02 08:20:51;;;;;;;0.00;0.00;;;;;;;10.25;100.00;97056.56;5113494;27;20032;-43
2023/11/02 08:23:17;;;;;;;0.00;0.00;;;;;;;10.37;100.00;97042.84;5114275;28;20026;-45
2023/11/02 08:25:45;;;;;;;0.00;0.00;;;;;;;10.44;100.00;97037.19;5113903;28;20082;-43
2023/11/02 08:28:10;;;;;;;0.00;0.00;;;;;;;10.49;100.00;97015.66;5118871;27;20444;-42
2023/11/02 08:30:36;;;;;;;0.00;0.00;;;;;;;10.51;100.00;97000.84;5123729;27;20234;-44
2023/11/02 08:33:01;;;;;;;0.00;0.00;;;;;;;10.57;100.00;97004.31;5113983;28;20055;-43
2023/11/02 08:35:27;;;;;;;0.00;0.00;;;;;;;10.62;100.00;96993.56;5113646;28;20016;-41
2023/11/02 08:37:52;;;;;;;0.00;0.00;;;;;;;10.69;100.00;96969.84;5129930;27;20091;-39
2023/11/02 08:40:19;;;;;;;0.00;0.00;;;;;;;10.70;100.00;96970.66;5133677;27;20068;-41
2023/11/02 08:42:45;;;;;;;0.00;0.00;;;;;;;10.72;100.00;96974.69;5114445;27;20020;-44
2023/11/02 08:45:14;;;;;;;0.00;0.00;;;;;;;10.65;100.00;96978.75;5112686;28;20297;-45
2023/11/02 08:47:43;;;;;;;0.00;0.00;;;;;;;10.65;100.00;96959.94;5114004;28;20019;-45
2023/11/02 08:50:10;;;;;;;0.00;0.00;;;;;;;10.64;100.00;96950.25;5113813;28;20067;-45
2023/11/02 08:52:35;;;;;;;0.00;0.00;;;;;;;10.64;100.00;96947.56;5111924;28;20027;-42
2023/11/02 08:55:03;;;;;;;0.00;0.00;;;;;;;10.63;100.00;96946.75;5112069;28;20034;-42
2023/11/02 08:57:29;;;;;;;0.00;0.00;;;;;;;10.61;100.00;96943.56;5112664;28;20035;-45
2023/11/02 08:59:55;;;;;;;0.00;0.00;;;;;;;10.55;100.00;96942.75;5112628;28;20047;-44
2023/11/02 09:02:20;;;;;;;0.00;0.00;;;;;;;10.50;100.00;96926.66;5112109;28;20040;-43
2023/11/02 09:04:53;;;;;;;0.00;0.00;;;;;;;10.43;100.00;96936.13;5088740;28;20389;-44
2023/11/02 09:07:19;;;;;;;0.00;0.00;;;;;;;10.43;100.00;96930.75;5088716;28;20386;-43
2023/11/02 09:09:44;;;;;;;0.00;0.00;;;;;;;10.42;100.00;96931.81;5088562;28;20074;-46
2023/11/02 09:12:10;;;;;;;0.00;0.00;;;;;;;10.48;100.00;96928.84;5088353;28;20025;-45
2023/11/02 09:14:35;;;;;;;0.00;0.00;;;;;;;10.44;100.00;96902.78;5088554;28;20073;-45
2023/11/02 09:17:01;;;;;;;0.00;0.00;;;;;;;10.43;100.00;96917.31;5087475;28;20051;-44
2023/11/02 09:19:26;;;;;;;0.00;0.00;;;;;;;10.35;100.00;96918.69;5084242;28;20030;-43
2023/11/02 09:21:52;;;;;;;0.00;0.00;;;;;;;10.37;100.00;96916.50;5088045;28;20040;-43
2023/11/02 09:24:17;;;;;;;0.00;0.00;;;;;;;10.55;100.00;96941.97;5088664;28;20063;-42
2023/11/02 09:26:43;;;;;;;0.00;0.00;;;;;;;10.37;100.00;96923.78;5089733;28;20068;-43
2023/11/02 09:29:08;;;;;;;0.00;0.00;;;;;;;10.28;100.00;96927.03;5090562;28;20123;-43
2023/11/02 09:31:33;;;;;;;0.00;0.00;;;;;;;10.17;100.00;96938.88;5090213;28;20020;-43
2023/11/02 09:34:02;;;;;;;0.00;0.00;;;;;;;10.12;100.00;96925.47;5089922;28;20040;-44
2023/11/02 09:36:30;;;;;;;0.00;0.00;;;;;;;10.14;100.00;96925.19;5087495;28;20090;-45
2023/11/02 09:38:59;;;;;;;0.00;0.00;;;;;;;10.13;100.00;96927.06;5105808;28;20019;-42
2023/11/02 09:41:27;;;;;;;0.00;0.00;;;;;;;10.09;100.00;96928.72;5080496;28;20036;-46
2023/11/02 09:43:54;;;;;;;0.00;0.00;;;;;;;10.15;100.00;96916.84;5085196;28;20029;-44
2023/11/02 09:46:19;;;;;;;0.00;0.00;;;;;;;10.23;100.00;96918.97;5075062;28;20028;-44
2023/11/02 09:48:44;;;;;;;0.00;0.00;;;;;;;10.27;100.00;96909.31;5072112;28;20024;-44
2023/11/02 09:51:11;;;;;;;0.00;0.00;;;;;;;10.32;100.00;96906.59;5081822;28;20475;-42
2023/11/02 09:53:37;;;;;;;0.00;0.00;;;;;;;10.34;100.00;96914.38;5069030;28;20040;-40
2023/11/02 09:56:02;;;;;;;0.00;0.00;;;;;;;10.42;100.00;96921.84;5072883;28;20036;-39
2023/11/02 09:58:28;;;;;;;0.00;0.00;;;;;;;10.62;100.00;96894.06;5071223;28;20036;-40
2023/11/02 10:00:54;;;;;;;0.00;0.00;;;;;;;10.79;100.00;96876.72;5071001;28;20439;-40
2023/11/02 10:03:19;;;;;;;0.00;0.00;;;;;;;10.80;100.00;96875.66;5071632;28;20078;-41
2023/11/02 10:05:45;;;;;;;0.00;0.00;;;;;;;10.90;100.00;96851.34;5073493;28;20013;-40
2023/11/02 10:08:12;;;;;;;0.00;0.00;;;;;;;10.99;100.00;96866.63;5070603;28;20032;-41
2023/11/02 10:10:37;;;;;;;0.00;0.00;;;;;;;11.12;100.00;96849.03;5069045;28;20020;-39
2023/11/02 10:13:03;;;;;;;0.00;0.00;;;;;;;11.13;100.00;96856.00;5067976;28;20129;-39
2023/11/02 10:15:29;;;;;;;0.00;0.00;;;;;;;11.26;100.00;96859.13;5058836;28;20048;-39
2023/11/02 10:17:55;;;;;;;0.00;0.00;;;;;;;11.40;100.00;96849.28;5054553;28;20436;-39
2023/11/02 10:20:20;;;;;;;0.00;0.00;;;;;;;11.31;100.00;96846.41;5054814;28;20049;-39
2023/11/02 10:22:58;;;;;;;0.00;0.00;;;;;;;11.21;100.00;96863.44;5055104;28;20043;-40
2023/11/02 10:25:23;;;;;;;0.00;0.00;;;;;;;11.05;100.00;96856.59;5057527;28;20083;-37
2023/11/02 10:27:50;;;;;;;0.00;0.00;;;;;;;10.95;100.00;96860.22;5058501;28;20029;-38
2023/11/02 10:30:17;;;;;;;0.00;0.00;;;;;;;10.92;100.00;96868.03;5059167;28;20029;-40
2023/11/02 10:32:42;;;;;;;0.00;0.00;;;;;;;10.95;100.00;96844.06;5054158;28;20029;-38
2023/11/02 10:35:08;;;;;;;0.00;0.00;;;;;;;10.93;100.00;96869.66;5053176;28;20028;-39
2023/11/02 10:37:35;;;;;;;0.00;0.00;;;;;;;10.95;100.00;96881.72;5054047;28;20029;-40
2023/11/02 10:40:00;;;;;;;0.00;0.00;;;;;;;10.94;100.00;96869.34;5054026;28;20021;-40
2023/11/02 10:42:27;;;;;;;0.10;0.00;;;;;;;10.99;100.00;96844.28;5053492;28;20490;-38
2023/11/02 10:44:52;;;;;;;0.00;0.00;;;;;;;11.01;100.00;96836.75;5053667;28;20029;-39
2023/11/02 10:47:21;;;;;;;0.00;0.00;;;;;;;11.06;100.00;96839.41;5053001;28;20025;-39
2023/11/02 10:49:51;;;;;;;0.00;0.00;;;;;;;11.03;100.00;96855.28;5053653;28;20039;-39
2023/11/02 10:52:29;;;;;;;0.00;0.00;;;;;;;10.99;100.00;96847.00;5052850;28;20025;-39
2023/11/02 10:55:01;;;;;;;0.00;0.00;;;;;;;10.95;100.00;96811.78;5055251;28;20025;-40
2023/11/02 10:57:29;;;;;;;0.00;0.00;;;;;;;10.66;100.00;96905.84;5055035;28;20067;-39
2023/11/02 10:59:58;;;;;;;0.00;0.00;;;;;;;10.55;100.00;96829.03;5052310;28;20029;-39
2023/11/02 11:02:24;;;;;;;0.00;0.00;;;;;;;10.58;100.00;96825.00;5056946;28;20047;-41
2023/11/02 11:04:50;;;;;;;0.00;0.00;;;;;;;10.61;100.00;96814.50;5056785;28;20490;-39
2023/11/02 11:07:15;;;;;;;0.00;0.00;;;;;;;10.67;100.00;96799.91;5056769;28;20032;-40
2023/11/02 11:09:40;;;;;;;0.00;0.00;;;;;;;10.88;100.00;96815.88;5059599;28;20033;-40
2023/11/02 11:12:07;;;;;;;0.00;0.00;;;;;;;11.05;100.00;96789.34;5058434;28;20032;-40
2023/11/02 11:14:35;;;;;;;0.00;0.00;;;;;;;11.08;100.00;96807.59;5055427;28;20029;-40
2023/11/02 11:17:01;;;;;;;0.00;0.00;;;;;;;11.18;100.00;96804.81;5053990;28;20082;-40
2023/11/02 11:19:33;;;;;;;0.00;0.00;;;;;;;11.34;100.00;96781.22;5052123;28;20451;-40
2023/11/02 11:22:03;;;;;;;0.00;0.00;;;;;;;11.51;100.00;96780.00;5053546;28;20078;-40
2023/11/02 11:24:32;;;;;;;0.00;0.00;;;;;;;11.39;100.00;96783.88;5052875;28;20021;-39
2023/11/02 11:26:59;;;;;;;0.00;0.00;;;;;;;11.37;100.00;96777.16;5052571;28;20028;-39
2023/11/02 11:29:43;;;;;;;0.00;0.00;;;;;;;11.40;100.00;96784.66;5053003;28;20032;-39
2023/11/02 11:32:32;;;;;;;0.00;0.00;;;;;;;11.34;100.00;96799.28;5052755;28;20057;-39
2023/11/02 11:35:03;;;;;;;0.00;0.00;;;;;;;11.43;100.00;96790.31;5052556;28;20416;-40